Time;durP1;ratioP1;P1;durP2;ratioP2;P2;SDS_P1;SDS_P2;PMS_P1;PMS_P2;Temp;Humidity;BMP_temperature;BMP_pressure;BME280_temperature;BME280_humidity;BME280_pressure;Samples;Min_cycle;Max_cycle;Signal;HPM_P1;HPM_P2
2022/04/01 00:02:18;;;;;;;19.45;11.18;;;13.40;75.10;;;;;;5068516;28;20051;-62
2022/04/01 00:04:44;;;;;;;17.42;11.82;;;13.30;75.30;;;;;;5076821;28;20032;-62
2022/04/01 00:07:10;;;;;;;18.83;12.65;;;13.40;75.40;;;;;;5079954;28;20036;-62
2022/04/01 00:09:37;;;;;;;19.60;12.13;;;13.40;75.60;;;;;;5086771;28;20032;-62
2022/04/01 00:12:07;;;;;;;18.15;10.77;;;13.40;75.60;;;;;;5075938;28;20103;-62
2022/04/01 00:14:33;;;;;;;17.50;12.18;;;13.40;75.60;;;;;;5087742;28;20025;-62
2022/04/01 00:17:00;;;;;;;17.67;11.00;;;13.40;75.80;;;;;;5061103;28;20027;-62
2022/04/01 00:19:26;;;;;;;18.42;12.32;;;13.40;75.70;;;;;;5090900;28;20035;-62
2022/04/01 00:21:52;;;;;;;19.67;12.68;;;13.30;75.20;;;;;;5094767;28;20028;-62
2022/04/01 00:24:18;;;;;;;18.75;12.73;;;13.20;75.00;;;;;;5087334;28;20052;-62
2022/04/01 00:26:45;;;;;;;16.05;11.45;;;13.10;75.40;;;;;;5086555;28;20082;-62
2022/04/01 00:29:18;;;;;;;18.63;10.85;;;12.90;76.10;;;;;;5088359;28;20024;-62
2022/04/01 00:31:58;;;;;;;18.52;13.10;;;12.90;76.80;;;;;;5069026;28;20021;-62
2022/04/01 00:34:29;;;;;;;22.90;14.43;;;12.70;76.80;;;;;;5076683;28;20028;-62
2022/04/01 00:36:56;;;;;;;22.23;12.68;;;12.70;77.10;;;;;;5082626;28;20029;-62
2022/04/01 00:39:23;;;;;;;16.17;11.38;;;12.60;77.50;;;;;;5081728;28;20094;-62
2022/04/01 00:41:50;;;;;;;19.02;12.23;;;12.60;77.70;;;;;;5086302;28;20035;-62
2022/04/01 00:44:23;;;;;;;15.48;11.50;;;12.50;77.50;;;;;;5088937;28;20069;-62
2022/04/01 00:46:52;;;;;;;18.15;12.20;;;12.50;77.60;;;;;;5054584;28;20099;-62
2022/04/01 00:49:18;;;;;;;21.77;11.90;;;12.40;78.00;;;;;;5078890;28;20091;-62
2022/04/01 00:51:47;;;;;;;20.55;11.20;;;12.40;78.20;;;;;;5094122;28;20028;-62
2022/04/01 00:54:13;;;;;;;20.55;12.05;;;12.30;78.20;;;;;;5083454;28;20032;-62
2022/04/01 00:56:39;;;;;;;19.52;11.20;;;12.30;79.10;;;;;;5084904;28;20024;-62
2022/04/01 00:59:06;;;;;;;22.45;11.90;;;12.30;79.60;;;;;;5066277;28;20511;-62
2022/04/01 01:01:36;;;;;;;18.33;11.50;;;12.30;80.20;;;;;;5064958;28;20472;-62
2022/04/01 01:04:04;;;;;;;13.07;10.10;;;12.20;80.30;;;;;;5086117;28;20025;-62
2022/04/01 01:06:31;;;;;;;18.65;11.05;;;12.20;80.20;;;;;;5074868;28;20066;-62
2022/04/01 01:08:58;;;;;;;15.35;10.00;;;12.10;80.30;;;;;;5076955;28;20025;-62
2022/04/01 01:11:25;;;;;;;17.13;10.60;;;12.10;80.30;;;;;;5078699;28;20029;-62
2022/04/01 01:13:52;;;;;;;19.52;11.02;;;12.00;80.50;;;;;;5094003;28;20024;-61
2022/04/01 01:16:19;;;;;;;20.05;10.95;;;11.90;80.90;;;;;;5073455;28;20056;-62
2022/04/01 01:18:45;;;;;;;19.02;10.75;;;11.90;81.20;;;;;;5074266;28;20035;-62
2022/04/01 01:21:11;;;;;;;16.95;10.75;;;11.80;81.30;;;;;;5090365;28;20496;-62
2022/04/01 01:23:38;;;;;;;18.77;12.57;;;11.80;81.70;;;;;;5093539;28;20020;-62
2022/04/01 01:26:04;;;;;;;23.90;13.07;;;11.70;82.10;;;;;;5092833;28;20523;-62
2022/04/01 01:28:30;;;;;;;19.15;12.70;;;11.70;82.40;;;;;;5071972;28;20020;-62
2022/04/01 01:30:55;;;;;;;17.75;11.20;;;11.70;82.80;;;;;;5072452;28;20035;-62
2022/04/01 01:33:24;;;;;;;21.80;12.23;;;11.70;82.80;;;;;;5062563;28;20021;-62
2022/04/01 01:35:50;;;;;;;17.67;13.10;;;11.70;82.80;;;;;;5088903;28;20047;-62
2022/04/01 01:38:17;;;;;;;15.15;10.98;;;11.70;83.00;;;;;;5084785;28;20079;-62
2022/04/01 01:40:43;;;;;;;17.10;11.00;;;11.70;83.20;;;;;;5089025;28;20100;-62
2022/04/01 01:43:09;;;;;;;16.52;11.18;;;11.60;83.30;;;;;;5090099;28;20492;-62
2022/04/01 01:45:35;;;;;;;23.88;12.50;;;11.60;83.70;;;;;;5073863;28;20093;-62
2022/04/01 01:48:01;;;;;;;18.98;12.00;;;11.50;83.70;;;;;;5080849;28;20024;-62
2022/04/01 01:55:55;;;;;;;17.20;11.30;;;11.30;83.60;;;;;;5089916;28;20042;-62
2022/04/01 01:58:21;;;;;;;21.33;12.52;;;11.20;84.00;;;;;;5077181;28;20032;-62
2022/04/01 02:00:46;;;;;;;19.55;12.52;;;11.10;84.50;;;;;;5067788;28;20560;-62
2022/04/01 02:03:12;;;;;;;21.15;12.70;;;11.10;84.80;;;;;;5092880;28;20103;-62
2022/04/01 02:05:38;;;;;;;18.10;11.57;;;11.10;85.20;;;;;;5086773;28;20029;-62
2022/04/01 02:08:05;;;;;;;18.30;11.70;;;11.00;85.50;;;;;;5087311;28;20032;-62
2022/04/01 02:10:32;;;;;;;17.40;13.07;;;11.00;85.90;;;;;;5074765;28;20384;-62
2022/04/01 02:12:58;;;;;;;19.35;13.00;;;11.00;86.30;;;;;;5084835;28;20053;-62
2022/04/01 02:15:24;;;;;;;23.55;14.20;;;11.00;86.10;;;;;;5092774;28;20026;-62
2022/04/01 02:17:50;;;;;;;19.23;13.05;;;11.00;86.10;;;;;;5079832;28;20083;-62
2022/04/01 02:20:17;;;;;;;22.00;12.88;;;11.00;85.90;;;;;;5082797;28;20561;-62
2022/04/01 02:22:44;;;;;;;17.80;11.23;;;11.10;85.80;;;;;;5084738;28;20139;-62
2022/04/01 02:25:11;;;;;;;22.27;11.90;;;11.00;85.10;;;;;;5067411;28;20024;-62
2022/04/01 02:27:38;;;;;;;17.08;11.05;;;10.90;84.70;;;;;;5087374;28;20050;-62
2022/04/01 02:30:10;;;;;;;18.08;12.00;;;10.80;85.10;;;;;;5074512;28;20021;-62
2022/04/01 02:32:41;;;;;;;18.15;13.70;;;10.70;86.00;;;;;;5065263;28;20048;-62
2022/04/01 02:35:08;;;;;;;17.52;11.95;;;10.60;86.50;;;;;;5075815;28;20039;-62
2022/04/01 02:37:34;;;;;;;19.13;12.35;;;10.60;87.00;;;;;;5089582;28;20131;-62
2022/04/01 02:40:00;;;;;;;22.05;13.00;;;10.60;87.20;;;;;;5085770;28;20395;-62
2022/04/01 02:42:26;;;;;;;17.77;13.20;;;10.60;87.60;;;;;;5084839;28;20099;-62
2022/04/01 02:44:52;;;;;;;19.52;12.52;;;10.60;87.90;;;;;;5090606;28;20533;-62
2022/04/01 02:47:18;;;;;;;21.55;14.48;;;10.60;88.00;;;;;;5085326;28;20021;-62
2022/04/01 02:49:44;;;;;;;24.45;14.40;;;10.50;88.70;;;;;;5086639;28;20411;-62
2022/04/01 02:52:10;;;;;;;24.23;14.38;;;10.50;89.10;;;;;;5073783;28;20021;-61
2022/04/01 02:54:35;;;;;;;25.35;14.82;;;10.50;89.70;;;;;;5069291;28;20095;-62
2022/04/01 02:57:02;;;;;;;23.92;15.25;;;10.60;90.00;;;;;;5080079;28;20111;-62
2022/04/01 02:59:29;;;;;;;27.80;15.95;;;10.60;90.30;;;;;;5074641;28;20029;-62
2022/04/01 03:01:55;;;;;;;25.23;16.42;;;10.70;90.60;;;;;;5091678;28;20484;-61
2022/04/01 03:04:22;;;;;;;22.58;14.65;;;10.80;90.70;;;;;;5085096;28;20167;-62
2022/04/01 03:06:49;;;;;;;26.67;15.60;;;10.90;90.70;;;;;;5064969;28;20044;-62
2022/04/01 03:09:15;;;;;;;26.25;16.17;;;11.00;90.70;;;;;;5088281;28;20418;-62
2022/04/01 03:11:42;;;;;;;21.70;13.93;;;11.00;90.70;;;;;;5073277;28;20032;-62
2022/04/01 03:14:09;;;;;;;22.70;14.65;;;11.10;90.70;;;;;;5084251;28;20469;-62
2022/04/01 03:16:39;;;;;;;18.42;14.38;;;11.10;90.50;;;;;;5082013;28;20085;-62
2022/04/01 03:19:08;;;;;;;28.65;18.20;;;11.10;90.40;;;;;;5089128;28;20152;-62
2022/04/01 03:21:35;;;;;;;32.10;18.35;;;11.10;90.50;;;;;;5078046;28;20028;-62
2022/04/01 03:24:02;;;;;;;28.75;17.05;;;11.20;90.60;;;;;;5096253;28;20021;-62
2022/04/01 03:26:28;;;;;;;34.03;19.23;;;11.20;90.60;;;;;;5073328;28;20071;-62
2022/04/01 03:28:59;;;;;;;28.00;18.27;;;11.20;90.60;;;;;;5092516;28;20039;-62
2022/04/01 03:31:25;;;;;;;31.00;17.95;;;11.20;90.70;;;;;;5075129;28;20373;-62
2022/04/01 03:33:51;;;;;;;24.63;15.25;;;11.30;90.70;;;;;;5074482;28;20064;-62
2022/04/01 03:36:18;;;;;;;26.45;16.73;;;11.30;90.50;;;;;;5067806;28;20024;-62
2022/04/01 03:38:44;;;;;;;24.35;16.30;;;11.40;90.40;;;;;;5095577;28;20063;-62
2022/04/01 03:41:11;;;;;;;22.30;15.52;;;11.40;90.30;;;;;;5095553;28;20035;-62
2022/04/01 03:43:37;;;;;;;24.55;16.05;;;11.40;90.20;;;;;;5084502;28;20032;-62
2022/04/01 03:46:09;;;;;;;22.27;13.90;;;11.40;90.10;;;;;;5076093;28;20028;-62
2022/04/01 03:48:44;;;;;;;23.73;14.68;;;11.40;88.80;;;;;;5078087;28;20024;-62
2022/04/01 03:51:17;;;;;;;20.65;14.10;;;11.40;87.80;;;;;;5088540;28;20104;-62
2022/04/01 03:54:02;;;;;;;17.65;12.23;;;11.30;87.10;;;;;;5088378;28;20024;-62
2022/04/01 03:56:37;;;;;;;23.85;14.00;;;11.10;86.90;;;;;;5090928;28;20028;-62
2022/04/01 03:59:05;;;;;;;24.52;13.85;;;11.00;87.30;;;;;;5075059;28;20036;-62
2022/04/01 04:01:31;;;;;;;21.50;14.10;;;10.90;88.20;;;;;;5086627;28;20027;-62
2022/04/01 04:03:58;;;;;;;24.42;13.05;;;10.80;89.20;;;;;;5088165;28;20353;-62
2022/04/01 04:06:25;;;;;;;28.75;16.40;;;10.70;89.80;;;;;;5077483;28;20483;-62
2022/04/01 04:08:57;;;;;;;20.15;14.32;;;10.70;90.30;;;;;;5090131;28;20381;-62
2022/04/01 04:11:25;;;;;;;25.52;14.20;;;10.60;90.40;;;;;;5087080;28;20028;-62
2022/04/01 04:13:55;;;;;;;23.65;14.90;;;10.60;90.70;;;;;;5094843;28;20032;-62
2022/04/01 04:16:24;;;;;;;26.80;16.63;;;10.50;90.90;;;;;;5070113;28;20969;-62
2022/04/01 04:19:00;;;;;;;23.67;14.85;;;10.40;91.20;;;;;;5084903;28;20029;-62
2022/04/01 04:21:30;;;;;;;25.95;15.68;;;10.40;91.40;;;;;;5072461;28;20035;-62
2022/04/01 04:24:01;;;;;;;21.45;14.77;;;10.40;91.70;;;;;;5091537;28;20019;-62
2022/04/01 04:26:38;;;;;;;22.75;15.85;;;10.50;91.80;;;;;;5093426;28;20443;-62
2022/04/01 04:29:12;;;;;;;23.05;15.50;;;10.50;91.70;;;;;;5070507;28;20028;-62
2022/04/01 04:31:55;;;;;;;24.88;15.52;;;10.50;91.70;;;;;;5075623;28;20059;-62
2022/04/01 04:34:24;;;;;;;25.15;15.88;;;10.50;91.80;;;;;;5072122;28;20419;-62
2022/04/01 04:36:51;;;;;;;25.02;15.57;;;10.40;91.70;;;;;;5084055;28;20026;-62
2022/04/01 04:39:30;;;;;;;24.13;15.13;;;10.40;91.70;;;;;;5073028;28;20136;-62
2022/04/01 04:41:57;;;;;;;24.27;17.25;;;10.30;91.80;;;;;;5063651;28;20456;-62
2022/04/01 04:44:28;;;;;;;21.10;14.63;;;10.30;92.20;;;;;;5093351;28;20019;-62
2022/04/01 04:46:56;;;;;;;23.58;15.52;;;10.30;92.30;;;;;;5079628;28;20078;-62
2022/04/01 04:49:27;;;;;;;25.50;16.17;;;10.30;92.10;;;;;;5086655;28;20036;-62
2022/04/01 04:51:53;;;;;;;22.45;14.43;;;10.30;92.00;;;;;;5065145;28;20029;-62
2022/04/01 04:54:20;;;;;;;25.55;13.80;;;10.40;91.90;;;;;;5066856;28;20397;-62
2022/04/01 04:56:48;;;;;;;20.83;14.23;;;10.40;91.80;;;;;;5072913;28;20038;-62
2022/04/01 04:59:17;;;;;;;26.25;15.07;;;10.30;91.70;;;;;;5064006;28;20024;-63
2022/04/01 05:01:54;;;;;;;22.00;14.75;;;10.20;91.90;;;;;;5066420;28;20480;-62
2022/04/01 05:04:58;;;;;;;24.40;14.93;;;10.20;92.10;;;;;;5063677;28;20124;-63
2022/04/01 05:08:02;;;;;;;22.08;15.13;;;10.20;92.20;;;;;;5057458;28;20116;-63
2022/04/01 05:11:05;;;;;;;25.52;17.15;;;10.10;92.10;;;;;;5055169;28;20409;-63
2022/04/01 05:14:00;;;;;;;22.70;15.25;;;10.10;92.30;;;;;;5061244;28;20052;-63
2022/04/01 05:16:39;;;;;;;26.17;16.35;;;10.20;92.60;;;;;;5063676;28;20063;-63
2022/04/01 05:19:19;;;;;;;22.45;15.65;;;10.30;92.60;;;;;;5061754;28;20032;-64
2022/04/01 05:22:06;;;;;;;27.55;16.67;;;10.30;92.30;;;;;;5062806;28;20032;-64
2022/04/01 05:24:39;;;;;;;26.48;15.50;;;10.40;92.10;;;;;;5063176;28;20496;-63
2022/04/01 05:27:23;;;;;;;26.63;15.98;;;10.50;92.10;;;;;;5071946;28;20534;-64
2022/04/01 05:30:01;;;;;;;21.65;14.15;;;10.50;91.90;;;;;;5055674;28;20036;-62
2022/04/01 05:32:31;;;;;;;25.73;14.02;;;10.50;92.00;;;;;;5088849;28;20500;-61
2022/04/01 05:35:00;;;;;;;22.17;14.30;;;10.50;91.90;;;;;;5068575;28;20536;-61
2022/04/01 05:37:29;;;;;;;24.15;13.82;;;10.50;91.90;;;;;;5073827;28;20076;-61
2022/04/01 05:39:55;;;;;;;20.50;14.50;;;10.50;91.90;;;;;;5071097;28;20083;-63
2022/04/01 05:42:22;;;;;;;29.33;16.85;;;10.50;91.90;;;;;;5066711;28;20506;-63
2022/04/01 05:44:51;;;;;;;30.75;16.98;;;10.50;92.10;;;;;;5073850;28;20047;-64
2022/04/01 05:47:20;;;;;;;27.38;16.27;;;10.60;92.50;;;;;;5075330;28;20024;-63
2022/04/01 05:49:46;;;;;;;29.88;16.40;;;10.60;92.50;;;;;;5075984;28;20043;-64
2022/04/01 05:52:13;;;;;;;26.52;17.33;;;10.70;92.20;;;;;;5062350;28;20025;-63
2022/04/01 05:54:39;;;;;;;20.02;14.25;;;10.80;92.20;;;;;;5075826;28;20020;-64
2022/04/01 05:57:08;;;;;;;30.05;14.40;;;10.90;92.10;;;;;;5086072;28;20499;-61
2022/04/01 05:59:34;;;;;;;21.13;13.02;;;10.90;91.60;;;;;;5066284;28;20024;-61
2022/04/01 06:02:28;;;;;;;32.42;16.23;;;11.00;91.30;;;;;;5063083;28;20039;-63
2022/04/01 06:05:18;;;;;;;21.40;13.60;;;11.00;91.20;;;;;;5067770;28;20017;-63
2022/04/01 06:08:17;;;;;;;28.60;15.27;;;10.90;91.20;;;;;;5061738;28;21874;-63
2022/04/01 06:10:48;;;;;;;26.90;14.57;;;10.90;92.10;;;;;;5068069;28;20040;-61
2022/04/01 06:13:17;;;;;;;28.50;17.02;;;10.90;93.30;;;;;;5059361;28;20063;-61
2022/04/01 06:15:58;;;;;;;26.90;16.20;;;11.10;93.80;;;;;;5066375;28;20028;-61
2022/04/01 06:19:09;;;;;;;25.38;15.38;;;11.20;93.80;;;;;;5060029;28;20024;-62
2022/04/01 06:21:49;;;;;;;26.17;15.68;;;11.40;93.60;;;;;;5052395;28;20073;-61
2022/04/01 06:24:44;;;;;;;34.03;16.48;;;11.60;93.80;;;;;;5053568;28;20040;-62
2022/04/01 06:27:17;;;;;;;30.42;15.80;;;11.90;93.50;;;;;;5053449;28;20064;-60
2022/04/01 06:29:49;;;;;;;22.05;14.40;;;12.00;93.90;;;;;;5057157;28;20040;-62
2022/04/01 06:32:24;;;;;;;23.42;14.30;;;12.30;94.00;;;;;;5056287;28;20089;-60
2022/04/01 06:35:17;;;;;;;27.65;14.50;;;12.60;92.90;;;;;;5052177;28;20107;-61
2022/04/01 06:37:55;;;;;;;30.15;14.70;;;12.90;92.20;;;;;;5057381;28;20281;-61
2022/04/01 06:40:26;;;;;;;25.05;13.80;;;13.20;91.70;;;;;;5053070;28;20045;-61
2022/04/01 06:42:53;;;;;;;21.65;12.20;;;13.40;91.00;;;;;;5059094;28;20017;-61
2022/04/01 06:45:20;;;;;;;23.90;13.25;;;13.50;90.50;;;;;;5059657;28;20033;-61
2022/04/01 06:47:47;;;;;;;33.50;13.85;;;13.60;89.80;;;;;;5053489;28;20170;-62
2022/04/01 06:50:16;;;;;;;24.95;14.05;;;13.70;89.60;;;;;;5057034;28;20033;-61
2022/04/01 06:52:43;;;;;;;22.55;12.48;;;13.90;89.80;;;;;;5067984;28;20396;-61
2022/04/01 06:55:10;;;;;;;22.50;12.70;;;13.90;88.60;;;;;;5059776;28;20059;-62
2022/04/01 06:57:36;;;;;;;22.90;12.75;;;14.00;87.50;;;;;;5057534;28;20037;-62
2022/04/01 07:00:12;;;;;;;23.95;12.65;;;14.10;87.10;;;;;;5062450;28;20029;-61
2022/04/01 07:02:41;;;;;;;23.13;12.57;;;14.10;87.40;;;;;;5059711;28;20044;-62
2022/04/01 07:05:11;;;;;;;23.85;14.05;;;14.20;86.90;;;;;;5059686;28;20047;-62
2022/04/01 07:07:39;;;;;;;25.77;12.90;;;14.30;86.50;;;;;;5065114;28;20496;-64
2022/04/01 07:10:07;;;;;;;26.60;13.40;;;14.40;85.70;;;;;;5062448;28;20559;-62
2022/04/01 07:12:33;;;;;;;25.67;13.93;;;14.50;84.80;;;;;;5063731;28;20024;-62
2022/04/01 07:14:59;;;;;;;23.27;13.15;;;14.50;84.10;;;;;;5058632;28;20041;-64
2022/04/01 07:17:25;;;;;;;26.35;13.98;;;14.60;83.60;;;;;;5057794;28;20036;-62
2022/04/01 07:19:52;;;;;;;26.85;14.30;;;14.60;83.40;;;;;;5060692;28;20570;-62
2022/04/01 07:22:18;;;;;;;27.33;13.20;;;14.70;83.40;;;;;;5064046;28;20413;-61
2022/04/01 07:24:44;;;;;;;31.02;13.45;;;14.80;83.20;;;;;;5065678;28;20020;-62
2022/04/01 07:27:11;;;;;;;22.63;12.57;;;14.90;82.90;;;;;;5058597;28;20052;-62
2022/04/01 07:29:37;;;;;;;22.55;12.85;;;15.00;82.70;;;;;;5057380;28;20028;-62
2022/04/01 07:34:50;;;;;;;30.13;17.13;;;15.10;82.30;;;;;;5057382;28;20031;-63
2022/04/01 07:37:16;;;;;;;27.58;16.67;;;15.20;82.10;;;;;;5053599;28;20032;-63
2022/04/01 07:39:42;;;;;;;22.42;12.13;;;15.30;81.40;;;;;;5062009;28;20043;-62
2022/04/01 07:42:08;;;;;;;27.05;12.77;;;15.40;79.60;;;;;;5058910;28;20028;-62
2022/04/01 07:44:34;;;;;;;23.13;13.10;;;15.40;79.00;;;;;;5062597;28;20043;-63
2022/04/01 07:47:01;;;;;;;24.15;11.88;;;15.30;78.70;;;;;;5057318;28;20037;-62
2022/04/01 07:49:27;;;;;;;24.63;11.63;;;15.30;78.50;;;;;;5057894;28;20036;-61
2022/04/01 07:51:53;;;;;;;22.45;11.85;;;15.30;77.30;;;;;;5076330;28;20765;-62
2022/04/01 07:54:19;;;;;;;21.13;11.48;;;15.20;77.30;;;;;;5059897;28;20023;-62
2022/04/01 07:56:46;;;;;;;23.10;11.88;;;15.20;77.10;;;;;;5064130;28;20037;-61
2022/04/01 07:59:16;;;;;;;20.98;11.88;;;15.20;77.40;;;;;;5062180;28;20036;-61
2022/04/01 08:01:44;;;;;;;22.27;11.13;;;15.10;76.60;;;;;;5051321;28;20056;-63
2022/04/01 08:04:10;;;;;;;24.88;11.15;;;15.10;76.50;;;;;;5050198;28;20021;-62
2022/04/01 08:06:36;;;;;;;18.08;10.95;;;15.10;75.90;;;;;;5055742;28;20408;-62
2022/04/01 08:09:02;;;;;;;20.13;10.60;;;15.00;75.50;;;;;;5059476;28;20027;-63
2022/04/01 08:11:28;;;;;;;20.30;12.32;;;15.00;75.50;;;;;;5053622;28;20773;-62
2022/04/01 08:13:55;;;;;;;18.05;10.60;;;14.90;75.50;;;;;;5057318;28;20024;-62
2022/04/01 08:16:22;;;;;;;23.75;12.05;;;14.80;75.60;;;;;;5054061;28;20706;-62
2022/04/01 08:18:48;;;;;;;18.13;10.90;;;14.80;75.40;;;;;;5056062;28;20020;-62
2022/04/01 08:21:15;;;;;;;21.00;11.02;;;14.80;75.20;;;;;;5051247;28;20033;-62
2022/04/01 08:23:43;;;;;;;20.08;11.73;;;14.70;74.90;;;;;;5048205;28;20482;-62
2022/04/01 08:26:11;;;;;;;22.02;12.25;;;14.70;75.30;;;;;;5055404;28;20511;-62
2022/04/01 08:28:37;;;;;;;27.17;12.02;;;14.60;75.50;;;;;;5049198;28;20044;-64
2022/04/01 08:31:04;;;;;;;26.35;12.70;;;14.60;75.30;;;;;;5049827;28;20071;-62
2022/04/01 08:33:30;;;;;;;26.17;12.27;;;14.60;75.20;;;;;;5046240;28;21756;-61
2022/04/01 08:35:56;;;;;;;20.70;12.13;;;14.60;75.00;;;;;;5079753;28;20033;-61
2022/04/01 08:38:22;;;;;;;21.50;11.05;;;14.60;74.80;;;;;;5043822;28;20555;-61
2022/04/01 08:40:49;;;;;;;22.08;10.30;;;14.70;75.10;;;;;;5046730;28;20115;-62
2022/04/01 08:43:27;;;;;;;20.52;11.20;;;14.70;74.30;;;;;;5050594;28;20041;-61
2022/04/01 08:45:54;;;;;;;16.35;9.90;;;14.50;74.40;;;;;;5042998;28;20028;-61
2022/04/01 08:48:21;;;;;;;19.23;11.45;;;14.40;75.10;;;;;;5037297;28;20603;-61
2022/04/01 08:50:47;;;;;;;19.25;11.32;;;14.40;75.20;;;;;;5047157;28;20037;-61
2022/04/01 08:53:13;;;;;;;22.02;11.57;;;14.30;76.10;;;;;;5047917;28;20051;-62
2022/04/01 08:55:39;;;;;;;21.15;11.98;;;14.30;75.70;;;;;;5051567;28;20040;-62
2022/04/01 08:58:05;;;;;;;22.92;12.40;;;14.20;76.20;;;;;;5047968;28;20032;-62
2022/04/01 09:00:31;;;;;;;19.50;12.55;;;14.30;76.40;;;;;;5043855;28;20090;-63
2022/04/01 09:03:07;;;;;;;22.27;11.45;;;14.30;76.00;;;;;;5055374;28;20032;-62
2022/04/01 09:05:34;;;;;;;21.25;11.25;;;14.40;76.00;;;;;;5058896;28;20062;-62
2022/04/01 09:08:08;;;;;;;21.17;12.02;;;14.30;75.60;;;;;;5055308;28;20086;-61
2022/04/01 09:10:54;;;;;;;24.52;13.05;;;14.20;76.50;;;;;;5053317;28;20043;-61
2022/04/01 09:13:22;;;;;;;22.98;13.07;;;14.20;77.10;;;;;;5053549;28;20028;-61
2022/04/01 09:15:49;;;;;;;20.77;12.02;;;14.20;78.00;;;;;;5057651;28;20016;-61
2022/04/01 09:18:37;;;;;;;18.98;11.30;;;14.30;77.20;;;;;;5062521;28;20043;-61
2022/04/01 09:21:03;;;;;;;19.65;11.20;;;14.30;76.50;;;;;;5061288;28;20052;-61
2022/04/01 09:23:30;;;;;;;26.00;11.10;;;14.40;76.40;;;;;;5056065;28;20031;-62
2022/04/01 09:25:56;;;;;;;24.17;12.27;;;14.40;76.60;;;;;;5059859;28;20058;-62
2022/04/01 09:28:30;;;;;;;26.90;12.15;;;14.50;76.90;;;;;;5057297;28;20033;-64
2022/04/01 09:31:06;;;;;;;21.45;12.80;;;14.60;77.30;;;;;;5054096;28;20554;-63
2022/04/01 09:33:54;;;;;;;24.08;13.00;;;14.70;77.50;;;;;;5055481;28;20405;-63
2022/04/01 09:36:25;;;;;;;25.85;12.45;;;14.80;77.40;;;;;;5057527;28;20036;-62
2022/04/01 09:39:02;;;;;;;24.92;12.70;;;14.90;77.20;;;;;;5054015;28;20056;-63
2022/04/01 09:41:37;;;;;;;23.67;12.02;;;14.90;76.90;;;;;;5054625;28;20160;-63
2022/04/01 09:44:28;;;;;;;20.08;11.68;;;15.00;76.80;;;;;;5059929;28;20024;-63
2022/04/01 09:46:56;;;;;;;19.58;12.00;;;15.00;76.50;;;;;;5055240;28;20162;-63
2022/04/01 09:49:33;;;;;;;21.80;11.63;;;15.00;76.30;;;;;;5050264;28;20033;-63
2022/04/01 09:51:58;;;;;;;22.88;10.77;;;15.10;76.10;;;;;;5058524;28;20461;-63
2022/04/01 09:54:25;;;;;;;20.42;11.40;;;15.10;75.80;;;;;;5052127;28;20039;-64
2022/04/01 09:56:54;;;;;;;22.65;11.65;;;15.10;75.90;;;;;;5043135;28;20029;-64
2022/04/01 09:59:22;;;;;;;25.67;11.98;;;15.10;76.10;;;;;;5050418;28;20033;-64
2022/04/01 10:01:48;;;;;;;27.98;13.00;;;15.20;76.00;;;;;;5048786;28;20028;-63
2022/04/01 10:04:14;;;;;;;22.23;11.25;;;15.20;75.90;;;;;;5051510;28;20078;-63
2022/04/01 10:06:40;;;;;;;20.55;12.60;;;15.20;75.80;;;;;;5050841;28;20041;-62
2022/04/01 10:09:09;;;;;;;20.17;11.85;;;15.30;75.90;;;;;;5049787;28;20033;-62
2022/04/01 10:11:37;;;;;;;21.77;12.40;;;15.30;75.80;;;;;;5055967;28;20043;-63
2022/04/01 10:14:11;;;;;;;26.02;12.60;;;15.30;75.90;;;;;;5050748;28;20043;-62
2022/04/01 10:16:41;;;;;;;26.23;12.63;;;15.40;76.00;;;;;;5051415;28;20036;-63
2022/04/01 10:19:11;;;;;;;21.80;12.02;;;15.30;76.40;;;;;;5053390;28;20021;-62
2022/04/01 10:21:40;;;;;;;23.53;11.77;;;15.40;76.50;;;;;;5050435;28;20024;-63
2022/04/01 10:24:15;;;;;;;24.73;12.63;;;15.40;76.30;;;;;;5053440;28;20040;-62
2022/04/01 10:27:07;;;;;;;19.67;11.95;;;15.40;76.20;;;;;;5048398;28;20066;-62
2022/04/01 10:29:34;;;;;;;21.17;12.02;;;15.40;76.00;;;;;;5054377;28;20032;-59
2022/04/01 10:32:21;;;;;;;24.30;12.32;;;15.40;76.20;;;;;;5046705;28;20037;-56
2022/04/01 10:34:47;;;;;;;21.77;12.27;;;15.50;75.60;;;;;;5049857;28;20033;-55
2022/04/01 10:37:15;;;;;;;25.30;13.52;;;15.50;75.80;;;;;;5058500;28;20087;-56
2022/04/01 10:39:49;;;;;;;24.75;11.77;;;15.50;75.90;;;;;;5049057;28;20128;-56
2022/04/01 10:42:16;;;;;;;22.13;11.98;;;15.50;76.10;;;;;;5051034;28;20035;-55
2022/04/01 10:44:54;;;;;;;24.45;12.70;;;15.50;76.10;;;;;;5053096;28;20036;-56
2022/04/01 10:53:44;;;;;;;22.92;13.07;;;15.40;76.20;;;;;;5053297;28;20090;-55
2022/04/01 10:56:25;;;;;;;20.58;12.35;;;15.30;75.90;;;;;;5047725;28;20033;-56
2022/04/01 10:59:13;;;;;;;20.80;12.05;;;15.30;76.20;;;;;;5048137;28;20036;-57
2022/04/01 11:02:03;;;;;;;18.83;10.82;;;15.20;76.50;;;;;;5047421;28;20032;-58
2022/04/01 11:04:32;;;;;;;20.60;11.52;;;15.10;76.60;;;;;;5052273;28;20021;-57
2022/04/01 11:07:03;;;;;;;22.63;11.52;;;15.00;76.90;;;;;;5048193;28;20029;-58
2022/04/01 11:09:52;;;;;;;18.43;11.90;;;15.00;77.30;;;;;;5056820;28;20047;-56
2022/04/01 11:12:23;;;;;;;19.63;11.68;;;15.00;77.30;;;;;;5054599;28;20040;-56
2022/04/01 11:14:58;;;;;;;17.88;10.68;;;14.90;77.60;;;;;;5047647;28;20036;-57
2022/04/01 11:17:34;;;;;;;24.27;11.70;;;14.90;77.60;;;;;;5044673;28;21476;-57
2022/04/01 11:20:06;;;;;;;21.55;11.55;;;14.90;77.60;;;;;;5042840;28;20388;-57
2022/04/01 11:22:58;;;;;;;22.05;11.80;;;14.80;77.70;;;;;;5040773;28;20523;-58
2022/04/01 11:25:24;;;;;;;23.15;11.88;;;14.80;77.80;;;;;;5046703;28;20037;-60
2022/04/01 11:28:05;;;;;;;30.52;12.32;;;14.80;78.00;;;;;;5051126;28;20040;-60
2022/04/01 11:30:31;;;;;;;22.50;11.98;;;14.80;78.10;;;;;;5043809;28;20576;-62
2022/04/01 11:32:59;;;;;;;23.00;12.48;;;14.80;78.40;;;;;;5041167;28;20032;-61
2022/04/01 11:35:27;;;;;;;26.55;13.20;;;14.80;78.50;;;;;;5054001;28;20037;-61
2022/04/01 11:37:53;;;;;;;18.98;10.98;;;14.80;78.60;;;;;;5052766;28;20033;-60
2022/04/01 11:40:27;;;;;;;18.52;10.48;;;14.90;78.40;;;;;;5057782;28;20060;-60
2022/04/01 11:43:07;;;;;;;21.42;11.07;;;14.90;79.00;;;;;;5058044;28;20089;-60
2022/04/01 11:45:34;;;;;;;24.63;12.20;;;14.90;78.30;;;;;;5046127;28;20029;-61
2022/04/01 11:48:02;;;;;;;20.02;10.65;;;15.00;78.10;;;;;;5050206;28;20029;-62
2022/04/01 11:50:27;;;;;;;23.02;12.18;;;15.00;77.90;;;;;;5054996;28;20119;-62
2022/04/01 11:52:57;;;;;;;19.45;11.32;;;15.00;77.80;;;;;;5051129;28;20032;-60
2022/04/01 11:55:28;;;;;;;33.00;20.42;;;15.00;77.70;;;;;;5054980;28;20036;-60
2022/04/01 11:57:56;;;;;;;22.98;13.80;;;15.10;77.80;;;;;;5053120;28;20028;-60
2022/04/01 12:00:25;;;;;;;21.58;11.65;;;15.10;77.90;;;;;;5053193;28;20036;-60
2022/04/01 12:02:52;;;;;;;19.85;10.63;;;15.10;77.80;;;;;;5053164;28;20041;-61
2022/04/01 12:05:19;;;;;;;22.65;11.35;;;15.10;77.50;;;;;;5039610;28;20028;-60
2022/04/01 12:10:58;;;;;;;21.05;10.65;;;15.20;77.00;;;;;;5043374;28;20039;-61
2022/04/01 12:13:27;;;;;;;18.33;10.02;;;15.20;76.70;;;;;;5045545;28;20439;-59
2022/04/01 12:15:53;;;;;;;22.10;10.68;;;15.30;76.60;;;;;;5051556;28;20039;-60
2022/04/01 12:18:20;;;;;;;22.40;9.90;;;15.30;76.40;;;;;;5050960;28;20108;-60
2022/04/01 12:21:01;;;;;;;21.83;9.90;;;15.40;76.20;;;;;;5049555;28;20029;-61
2022/04/01 12:23:30;;;;;;;20.30;10.27;;;15.50;75.90;;;;;;5043823;28;20087;-60
2022/04/01 12:25:57;;;;;;;15.73;9.50;;;15.50;75.70;;;;;;5044786;28;20418;-60
2022/04/01 12:28:37;;;;;;;20.27;9.85;;;15.60;75.50;;;;;;5042633;28;20085;-61
2022/04/01 12:31:03;;;;;;;16.00;8.60;;;15.70;75.20;;;;;;5045655;28;20037;-60
2022/04/01 12:33:33;;;;;;;18.00;9.60;;;15.80;74.80;;;;;;5046545;28;20066;-61
2022/04/01 12:36:05;;;;;;;19.75;9.82;;;16.00;74.30;;;;;;5045043;28;20378;-60
2022/04/01 12:38:33;;;;;;;18.88;10.02;;;16.10;73.80;;;;;;5049198;28;20040;-60
2022/04/01 12:41:02;;;;;;;21.58;9.07;;;16.20;73.50;;;;;;5048541;28;20033;-60
2022/04/01 12:43:46;;;;;;;19.30;8.82;;;16.20;73.20;;;;;;5047541;28;20191;-60
2022/04/01 12:46:23;;;;;;;23.33;9.95;;;16.20;72.80;;;;;;5045308;28;20477;-60
2022/04/01 12:49:00;;;;;;;20.05;9.23;;;16.30;72.70;;;;;;5043134;28;20068;-61
2022/04/01 12:51:35;;;;;;;18.88;8.95;;;16.30;72.40;;;;;;5042527;28;20392;-59
2022/04/01 12:54:05;;;;;;;20.77;9.30;;;16.30;72.30;;;;;;5045319;28;20705;-59
2022/04/01 12:56:39;;;;;;;23.67;10.15;;;16.30;72.30;;;;;;5049329;28;20038;-59
2022/04/01 12:59:08;;;;;;;15.80;8.65;;;16.30;72.20;;;;;;5044686;28;20036;-60
2022/04/01 13:01:36;;;;;;;17.40;9.05;;;16.40;72.20;;;;;;5042203;28;20033;-61
2022/04/01 13:04:02;;;;;;;17.27;8.65;;;16.40;72.10;;;;;;5045945;28;20028;-61